Time;durP1;ratioP1;P1;durP2;ratioP2;P2;SDS_P1;SDS_P2;PMS_P1;PMS_P2;Temp;Humidity;BMP_temperature;BMP_pressure;BME280_temperature;BME280_humidity;BME280_pressure;Samples;Min_cycle;Max_cycle;Signal;HPM_P1;HPM_P2
2022/06/14 00:03:05;;;;;;;21.13;7.05;;;;;;;13.56;100.00;98495.00;5047571;28;20039;-55
2022/06/14 00:05:30;;;;;;;26.40;6.97;;;;;;;13.62;100.00;98495.59;5047167;28;20040;-56
2022/06/14 00:07:56;;;;;;;23.85;7.07;;;;;;;13.19;100.00;98502.69;5049321;28;20031;-56
2022/06/14 00:10:21;;;;;;;27.83;7.28;;;;;;;13.38;100.00;98501.91;5045676;28;20028;-55
2022/06/14 00:12:47;;;;;;;26.52;7.60;;;;;;;13.54;100.00;98497.69;5047829;28;20434;-55
2022/06/14 00:15:12;;;;;;;20.52;7.43;;;;;;;13.35;100.00;98502.06;5047969;28;20072;-56
2022/06/14 00:17:38;;;;;;;25.75;7.97;;;;;;;13.33;100.00;98509.16;5047069;28;20020;-56
2022/06/14 00:20:05;;;;;;;32.20;8.80;;;;;;;13.08;100.00;98504.91;5047852;28;20025;-56
2022/06/14 00:22:33;;;;;;;28.20;8.02;;;;;;;13.01;100.00;98511.34;5046458;28;20613;-56
2022/06/14 00:24:59;;;;;;;24.15;7.03;;;;;;;13.66;100.00;98510.25;5046998;28;20024;-56
2022/06/14 00:27:24;;;;;;;27.05;7.28;;;;;;;13.65;100.00;98508.53;5044920;28;20143;-56
2022/06/14 00:29:49;;;;;;;28.63;7.43;;;;;;;13.23;100.00;98513.88;5046559;28;20513;-57
2022/06/14 00:32:15;;;;;;;22.13;7.15;;;;;;;13.15;100.00;98516.84;5045983;28;20064;-54
2022/06/14 00:34:40;;;;;;;26.90;7.65;;;;;;;13.52;100.00;98517.88;5048511;28;20033;-55
2022/06/14 00:37:13;;;;;;;28.02;7.82;;;;;;;12.93;100.00;98512.50;5048264;28;20040;-55
2022/06/14 00:39:39;;;;;;;30.25;8.07;;;;;;;12.61;100.00;98516.50;5048418;28;20029;-56
2022/06/14 00:42:04;;;;;;;24.98;7.53;;;;;;;12.31;100.00;98514.22;5044946;28;20067;-57
2022/06/14 00:44:30;;;;;;;24.23;7.22;;;;;;;12.43;100.00;98514.63;5046339;28;20028;-56
2022/06/14 00:47:06;;;;;;;23.48;7.40;;;;;;;12.46;100.00;98504.88;5046875;28;20554;-56
2022/06/14 00:49:35;;;;;;;24.02;7.65;;;;;;;12.21;100.00;98512.84;5047945;28;20074;-56
2022/06/14 00:52:11;;;;;;;31.52;8.13;;;;;;;12.16;100.00;98520.03;5047289;28;20778;-57
2022/06/14 00:54:41;;;;;;;20.67;6.88;;;;;;;12.71;100.00;98523.03;5048328;28;20073;-56
2022/06/14 00:57:24;;;;;;;19.70;7.10;;;;;;;12.61;100.00;98526.09;5048326;28;20408;-55
2022/06/14 01:00:22;;;;;;;21.00;7.28;;;;;;;12.58;100.00;98524.47;5045667;28;20024;-55
2022/06/14 01:02:54;;;;;;;20.15;7.22;;;;;;;12.11;100.00;98530.69;5045955;28;20085;-54
2022/06/14 01:05:25;;;;;;;23.27;7.85;;;;;;;12.15;100.00;98527.03;5046073;28;20025;-57
2022/06/14 01:07:54;;;;;;;25.02;7.65;;;;;;;12.09;100.00;98529.88;5045186;28;20114;-56
2022/06/14 01:10:33;;;;;;;24.88;7.68;;;;;;;11.79;100.00;98531.00;5045372;28;20033;-56
2022/06/14 01:13:04;;;;;;;25.85;7.72;;;;;;;11.55;100.00;98534.47;5044333;28;20032;-55
2022/06/14 01:15:33;;;;;;;20.38;7.28;;;;;;;11.39;100.00;98533.31;5046755;28;20050;-55
2022/06/14 01:18:05;;;;;;;24.90;7.97;;;;;;;11.66;100.00;98526.22;5046727;28;20136;-55
2022/06/14 01:20:31;;;;;;;23.02;7.20;;;;;;;11.69;100.00;98526.13;5043352;28;20593;-55
2022/06/14 01:22:57;;;;;;;21.38;7.20;;;;;;;11.78;100.00;98519.69;5046684;28;20036;-55
2022/06/14 01:25:25;;;;;;;25.77;7.60;;;;;;;11.90;100.00;98531.50;5044576;28;20518;-56
2022/06/14 01:27:53;;;;;;;26.75;7.95;;;;;;;12.05;100.00;98517.81;5045218;28;20144;-55
2022/06/14 01:30:22;;;;;;;21.88;7.20;;;;;;;12.33;100.00;98511.50;5045563;28;20053;-56
2022/06/14 01:32:54;;;;;;;22.40;7.30;;;;;;;12.46;100.00;98511.88;5048132;28;20372;-56
2022/06/14 01:35:23;;;;;;;22.73;7.15;;;;;;;12.66;100.00;98508.44;5047048;28;20126;-54
2022/06/14 01:37:51;;;;;;;19.27;6.90;;;;;;;12.46;100.00;98512.75;5047632;28;20020;-55
2022/06/14 01:40:18;;;;;;;23.70;7.05;;;;;;;12.49;100.00;98517.81;5045300;28;20490;-56
2022/06/14 01:43:05;;;;;;;24.15;8.20;;;;;;;12.15;100.00;98516.56;5045223;28;20021;-55
2022/06/14 01:45:53;;;;;;;22.17;7.60;;;;;;;12.01;100.00;98511.00;5046330;28;20036;-55
2022/06/14 01:48:45;;;;;;;20.17;7.30;;;;;;;12.45;100.00;98511.03;5045462;28;20043;-55
2022/06/14 01:51:51;;;;;;;19.98;7.28;;;;;;;12.18;100.00;98517.34;5034796;28;20049;-56
2022/06/14 01:54:22;;;;;;;23.55;7.32;;;;;;;12.19;100.00;98525.13;5046662;28;20060;-55
2022/06/14 01:57:03;;;;;;;29.42;8.00;;;;;;;11.95;100.00;98521.72;5043805;28;20080;-55
2022/06/14 02:00:01;;;;;;;24.23;7.80;;;;;;;12.12;100.00;98519.28;5044685;28;20086;-55
2022/06/14 02:02:35;;;;;;;20.92;7.60;;;;;;;12.49;100.00;98515.22;5021280;28;20028;-57
2022/06/14 02:05:09;;;;;;;21.27;7.28;;;;;;;12.21;100.00;98519.84;5045768;28;20029;-56
2022/06/14 02:08:05;;;;;;;24.13;7.82;;;;;;;12.07;100.00;98515.16;5043240;28;20382;-56
2022/06/14 02:10:40;;;;;;;24.35;8.10;;;;;;;11.89;100.00;98521.91;5044328;28;20032;-55
2022/06/14 02:13:27;;;;;;;22.13;7.50;;;;;;;11.76;100.00;98514.53;5045718;28;20132;-56
2022/06/14 02:16:05;;;;;;;23.55;7.50;;;;;;;12.00;100.00;98514.53;5045119;28;20222;-56
2022/06/14 02:18:40;;;;;;;25.15;7.82;;;;;;;12.01;100.00;98512.78;5045760;28;20020;-56
2022/06/14 02:21:28;;;;;;;22.63;7.10;;;;;;;12.41;100.00;98524.31;5043798;28;20037;-57
2022/06/14 02:24:18;;;;;;;24.92;7.25;;;;;;;11.89;100.00;98514.94;5044408;28;20032;-55
2022/06/14 02:26:52;;;;;;;26.50;8.35;;;;;;;11.97;100.00;98524.28;5044104;28;20091;-57
2022/06/14 02:29:23;;;;;;;20.55;7.53;;;;;;;11.97;100.00;98525.13;5053602;28;20102;-56
2022/06/14 02:32:04;;;;;;;27.63;8.60;;;;;;;11.89;100.00;98524.50;5044705;28;20037;-55
2022/06/14 02:34:36;;;;;;;27.55;8.20;;;;;;;12.01;100.00;98526.69;5046439;28;20658;-54
2022/06/14 02:37:12;;;;;;;22.35;7.68;;;;;;;11.86;100.00;98527.25;5045838;28;20039;-55
2022/06/14 02:40:09;;;;;;;21.77;7.70;;;;;;;11.88;100.00;98528.06;5045266;28;20020;-55
2022/06/14 02:43:19;;;;;;;27.92;6.97;;;;;;;12.46;100.00;98524.94;5031066;28;20048;-55
2022/06/14 02:45:48;;;;;;;22.00;7.63;;;;;;;11.81;100.00;98524.81;5036984;28;20402;-55
2022/06/14 02:48:18;;;;;;;26.00;7.45;;;;;;;11.68;100.00;98527.03;5047100;28;20029;-56
2022/06/14 02:50:59;;;;;;;23.65;7.80;;;;;;;11.86;100.00;98527.25;5042806;28;20365;-55
2022/06/14 02:53:33;;;;;;;21.95;7.22;;;;;;;12.28;100.00;98518.72;5045636;28;20557;-56
2022/06/14 02:56:36;;;;;;;26.00;7.60;;;;;;;12.23;100.00;98523.25;5044281;28;20645;-56
2022/06/14 02:59:14;;;;;;;23.80;7.63;;;;;;;12.25;100.00;98524.03;5045803;28;20031;-55
2022/06/14 03:01:51;;;;;;;21.40;7.07;;;;;;;12.42;100.00;98532.06;5043367;28;20045;-55
2022/06/14 03:04:26;;;;;;;22.17;7.43;;;;;;;12.55;100.00;98537.66;5044783;28;20029;-55
2022/06/14 03:07:14;;;;;;;23.70;7.60;;;;;;;12.64;100.00;98528.59;5046872;28;20037;-55
2022/06/14 03:09:42;;;;;;;24.58;7.93;;;;;;;12.59;100.00;98527.91;5049248;28;20016;-55
2022/06/14 03:12:28;;;;;;;22.88;7.40;;;;;;;12.60;100.00;98535.72;5048119;28;20052;-55
2022/06/14 03:15:25;;;;;;;23.02;7.25;;;;;;;12.23;100.00;98536.34;5049725;28;20028;-55
2022/06/14 03:18:05;;;;;;;20.10;7.00;;;;;;;12.65;100.00;98525.06;5049669;28;20040;-55
2022/06/14 03:20:45;;;;;;;23.27;7.30;;;;;;;12.81;100.00;98525.25;5048486;28;20076;-54
2022/06/14 03:23:31;;;;;;;24.15;7.85;;;;;;;12.53;100.00;98524.66;5048872;28;20524;-55
2022/06/14 03:26:13;;;;;;;27.67;7.47;;;;;;;12.85;100.00;98535.56;5048838;28;20083;-55
2022/06/14 03:28:48;;;;;;;24.20;8.10;;;;;;;12.37;100.00;98539.28;5048898;28;20028;-56
2022/06/14 03:31:34;;;;;;;23.38;7.75;;;;;;;12.21;100.00;98543.41;5046712;28;20578;-55
2022/06/14 03:34:18;;;;;;;23.98;7.38;;;;;;;12.48;100.00;98539.69;5047732;28;20021;-54
2022/06/14 03:36:44;;;;;;;22.58;7.38;;;;;;;12.05;100.00;98538.75;5047293;28;20506;-55
2022/06/14 03:39:19;;;;;;;21.98;7.43;;;;;;;12.73;100.00;98538.69;5047827;28;20557;-57
2022/06/14 03:41:48;;;;;;;21.60;7.40;;;;;;;12.78;100.00;98528.88;5048310;28;20036;-55
2022/06/14 03:44:15;;;;;;;22.88;7.60;;;;;;;12.84;100.00;98533.84;5048158;28;20068;-59
2022/06/14 03:46:50;;;;;;;23.45;7.60;;;;;;;12.49;100.00;98527.44;5046978;28;20114;-57
2022/06/14 03:49:19;;;;;;;19.15;6.82;;;;;;;13.10;100.00;98524.03;5049108;28;20066;-55
2022/06/14 03:52:09;;;;;;;19.85;7.25;;;;;;;12.73;100.00;98528.22;5048318;28;20068;-55
2022/06/14 03:54:40;;;;;;;17.92;7.15;;;;;;;13.06;100.00;98525.09;5047216;28;20639;-55
2022/06/14 03:57:08;;;;;;;19.63;7.25;;;;;;;12.52;100.00;98527.34;5046999;28;20048;-55
2022/06/14 03:59:51;;;;;;;22.08;7.53;;;;;;;13.29;100.00;98519.72;5047371;28;20040;-55
2022/06/14 04:02:53;;;;;;;23.30;7.55;;;;;;;12.87;100.00;98527.66;5045936;28;20481;-57
2022/06/14 04:05:52;;;;;;;23.08;7.63;;;;;;;12.86;100.00;98532.00;5046261;28;20930;-55
2022/06/14 04:08:32;;;;;;;25.02;7.32;;;;;;;13.19;100.00;98534.13;5047856;28;20073;-55
2022/06/14 04:11:07;;;;;;;21.77;7.47;;;;;;;13.05;100.00;98532.09;5046798;28;20044;-54
2022/06/14 04:13:47;;;;;;;22.58;7.53;;;;;;;13.43;100.00;98534.00;5048405;28;20097;-55
2022/06/14 04:16:15;;;;;;;24.92;7.55;;;;;;;15.11;100.00;98521.69;5048236;28;20546;-55
2022/06/14 04:18:40;;;;;;;23.17;7.60;;;;;;;14.08;100.00;98535.41;5047506;28;20037;-56
2022/06/14 04:21:44;;;;;;;22.10;7.15;;;;;;;15.11;100.00;98536.59;5048557;28;20052;-55
2022/06/14 04:24:10;;;;;;;20.08;6.80;;;;;;;15.92;100.00;98532.38;5047303;28;20138;-55
2022/06/14 04:27:14;;;;;;;21.33;7.10;;;;;;;15.20;100.00;98531.72;5055437;28;20071;-56
2022/06/14 04:30:19;;;;;;;20.58;6.90;;;;;;;15.20;100.00;98530.84;5021604;28;20037;-56
2022/06/14 04:32:53;;;;;;;20.00;6.85;;;;;;;15.85;100.00;98523.09;5038089;28;20053;-55
2022/06/14 04:35:26;;;;;;;15.23;6.68;;;;;;;15.78;100.00;98517.31;5046362;28;20029;-56
2022/06/14 04:38:04;;;;;;;16.75;6.82;;;;;;;15.35;100.00;98519.56;5047643;28;20115;-55
2022/06/14 04:40:56;;;;;;;20.75;6.93;;;;;;;15.82;100.00;98520.63;5045161;28;20454;-56
2022/06/14 04:43:59;;;;;;;16.95;6.47;;;;;;;16.22;100.00;98521.06;5048134;28;20020;-55
2022/06/14 04:46:46;;;;;;;22.50;6.80;;;;;;;15.09;100.00;98523.56;5047205;28;20048;-56
2022/06/14 04:49:18;;;;;;;20.00;7.00;;;;;;;16.56;100.00;98529.72;5051284;28;20029;-55
2022/06/14 04:51:49;;;;;;;19.40;6.80;;;;;;;15.46;100.00;98524.28;5047371;28;20279;-55
2022/06/14 04:54:33;;;;;;;19.90;6.88;;;;;;;16.04;100.00;98532.63;5046140;28;20032;-56
2022/06/14 04:57:11;;;;;;;16.48;6.65;;;;;;;18.15;100.00;98528.16;5054404;28;20040;-56
2022/06/14 04:59:51;;;;;;;17.40;6.30;;;;;;;20.69;96.34;98529.34;5047176;28;20025;-56
2022/06/14 05:02:30;;;;;;;19.63;6.95;;;;;;;21.76;73.12;98530.94;5046627;28;20029;-57
2022/06/14 05:05:01;;;;;;;12.88;5.43;;;;;;;21.02;74.09;98530.44;5045176;28;20040;-57
2022/06/14 05:07:53;;;;;;;16.80;5.95;;;;;;;20.22;80.72;98527.38;5046395;28;20060;-57
2022/06/14 05:10:23;;;;;;;14.10;5.77;;;;;;;24.89;60.17;98524.00;5043399;28;20028;-58
2022/06/14 05:12:57;;;;;;;15.63;5.40;;;;;;;25.66;55.64;98522.19;5046854;28;20044;-56
2022/06/14 05:15:38;;;;;;;10.75;4.95;;;;;;;26.20;50.00;98513.53;5048341;28;20037;-57
2022/06/14 05:18:10;;;;;;;12.02;5.20;;;;;;;27.06;47.60;98499.66;5046055;28;20891;-57
2022/06/14 05:20:56;;;;;;;11.25;5.18;;;;;;;28.03;44.91;98508.47;5045210;28;20129;-57
2022/06/14 05:23:22;;;;;;;12.35;4.95;;;;;;;27.92;44.79;98504.25;5044048;28;20025;-57
2022/06/14 05:25:59;;;;;;;11.07;4.82;;;;;;;27.16;45.17;98504.91;5045820;28;20055;-57
2022/06/14 05:28:37;;;;;;;11.05;4.88;;;;;;;29.51;41.25;98505.94;5044973;28;20073;-56
2022/06/14 05:31:11;;;;;;;9.13;4.80;;;;;;;27.46;41.91;98507.16;5044739;28;20045;-58
2022/06/14 05:33:43;;;;;;;8.55;4.40;;;;;;;28.80;41.39;98500.28;5044475;28;20099;-57
2022/06/14 05:36:17;;;;;;;;;;;;;;;27.89;41.78;98507.22;5045177;28;20041;-57
2022/06/14 05:39:00;;;;;;;10.50;4.88;;;;;;;28.11;43.10;98505.81;5045841;28;19924;-56
2022/06/14 05:41:50;;;;;;;9.73;4.70;;;;;;;29.90;39.32;98513.25;5047687;28;20205;-56
2022/06/14 05:44:33;;;;;;;10.25;4.28;;;;;;;26.58;43.96;98517.78;5045967;28;20119;-56
2022/06/14 05:47:08;;;;;;;9.30;4.00;;;;;;;31.12;36.14;98514.38;5045837;28;20064;-56
2022/06/14 05:49:41;;;;;;;9.82;4.35;;;;;;;29.70;39.54;98513.63;5045842;28;20055;-58
2022/06/14 05:52:10;;;;;;;8.05;4.00;;;;;;;27.61;41.62;98509.28;5045417;28;20765;-56
2022/06/14 05:54:45;;;;;;;9.32;3.90;;;;;;;29.67;39.52;98508.59;5045979;28;20037;-56
2022/06/14 05:57:38;;;;;;;8.68;4.60;;;;;;;28.57;39.75;98519.72;5045816;28;20114;-59
2022/06/14 06:00:10;;;;;;;11.25;4.53;;;;;;;28.00;40.84;98525.72;5043737;28;20029;-57
2022/06/14 06:02:57;;;;;;;9.88;4.43;;;;;;;30.59;36.22;98518.81;5044360;28;20049;-56
2022/06/14 06:05:40;;;;;;;8.32;3.63;;;;;;;29.42;37.11;98515.88;5046052;28;20070;-57
2022/06/14 06:08:15;;;;;;;7.90;3.95;;;;;;;31.28;35.59;98516.09;5046389;28;20657;-57
2022/06/14 06:10:55;;;;;;;7.05;3.58;;;;;;;30.50;36.14;98523.41;5042233;28;20119;-58
2022/06/14 06:13:29;;;;;;;11.27;4.07;;;;;;;31.99;33.76;98507.56;5044425;28;20051;-57
2022/06/14 06:16:05;;;;;;;10.63;3.85;;;;;;;30.05;35.60;98508.84;5045585;28;20055;-58
2022/06/14 06:18:36;;;;;;;6.82;3.42;;;;;;;31.75;34.37;98507.88;5044671;28;20044;-56
2022/06/14 06:21:25;;;;;;;6.53;3.60;;;;;;;31.70;34.10;98506.56;5045468;28;20059;-56
2022/06/14 06:23:50;;;;;;;5.50;3.55;;;;;;;31.06;34.56;98508.88;5045283;28;20025;-57
2022/06/14 06:26:19;;;;;;;7.70;3.40;;;;;;;30.80;36.25;98515.44;5043769;28;20041;-58
2022/06/14 06:28:54;;;;;;;8.48;3.33;;;;;;;30.49;35.45;98515.50;5043739;28;20672;-57
2022/06/14 06:31:35;;;;;;;5.78;3.20;;;;;;;31.56;33.92;98514.66;5045331;28;20066;-57
2022/06/14 06:34:02;;;;;;;;;;;;;;;32.28;32.60;98508.59;5045097;28;20024;-57
2022/06/14 06:36:30;;;;;;;6.95;3.33;;;;;;;32.40;32.87;98515.16;5044535;28;19925;-57
2022/06/14 06:38:58;;;;;;;5.10;2.97;;;;;;;31.90;33.78;98509.53;5046116;28;20130;-57
2022/06/14 06:44:16;;;;;;;9.05;3.10;;;;;;;33.70;30.85;98507.81;5051930;28;20032;-57
2022/06/14 06:46:48;;;;;;;4.97;2.75;;;;;;;33.92;29.64;98510.44;5051159;28;20043;-56
2022/06/14 06:49:18;;;;;;;6.90;2.90;;;;;;;34.20;29.07;98504.13;5052246;28;20036;-58
2022/06/14 06:51:50;;;;;;;6.82;2.60;;;;;;;32.92;30.89;98501.56;5050007;28;20704;-56
2022/06/14 06:54:30;;;;;;;6.18;3.00;;;;;;;32.25;31.20;98503.56;5052285;28;20111;-58
2022/06/14 06:56:59;;;;;;;5.53;2.90;;;;;;;32.70;29.60;98501.59;5050704;28;20526;-57
2022/06/14 06:59:40;;;;;;;6.25;2.65;;;;;;;31.72;31.41;98500.16;5051380;28;20628;-57
2022/06/14 07:02:26;;;;;;;;;;;;;;;33.57;28.44;98503.13;5050301;28;20140;-57
2022/06/14 07:05:05;;;;;;;6.10;2.50;;;;;;;32.45;28.21;98503.78;5050577;28;20329;-57
2022/06/14 07:08:10;;;;;;;5.85;2.60;;;;;;;33.37;27.43;98504.88;5049654;28;20045;-57
2022/06/14 07:10:41;;;;;;;10.18;2.45;;;;;;;29.95;30.95;98509.03;5049543;28;20704;-57
2022/06/14 07:13:21;;;;;;;4.72;2.25;;;;;;;33.00;27.87;98506.84;5051113;28;20170;-57
2022/06/14 07:15:59;;;;;;;5.20;2.20;;;;;;;32.68;27.71;98500.94;5051900;28;20717;-58
2022/06/14 07:18:30;;;;;;;7.18;2.22;;;;;;;33.27;26.93;98501.66;5052696;28;20059;-57
2022/06/14 07:21:01;;;;;;;5.32;2.20;;;;;;;32.95;27.75;98495.78;5050625;28;20044;-57
2022/06/14 07:23:39;;;;;;;6.47;2.63;;;;;;;31.20;28.73;98494.59;5050228;28;20389;-58
2022/06/14 07:26:04;;;;;;;5.35;2.40;;;;;;;30.22;29.99;98500.66;5051132;28;20247;-57
2022/06/14 07:28:42;;;;;;;4.90;2.38;;;;;;;33.71;27.10;98495.09;5053291;28;20048;-58
2022/06/14 07:31:16;;;;;;;8.65;2.42;;;;;;;35.24;25.95;98497.44;5048868;28;20056;-58
2022/06/14 07:33:42;;;;;;;5.90;2.45;;;;;;;32.91;27.87;98498.03;5049024;28;20060;-59
2022/06/14 07:36:19;;;;;;;5.18;2.28;;;;;;;33.87;26.07;98488.53;5050123;28;20063;-58
2022/06/14 07:38:55;;;;;;;6.25;2.75;;;;;;;33.73;26.16;98490.31;5051434;28;20040;-57
2022/06/14 07:41:56;;;;;;;7.00;2.35;;;;;;;31.37;27.95;98489.06;5048885;28;20222;-58
2022/06/14 07:44:35;;;;;;;6.87;2.40;;;;;;;31.68;28.47;98484.34;5000460;28;20038;-59
2022/06/14 07:47:11;;;;;;;5.47;2.67;;;;;;;33.43;27.29;98485.13;5048349;28;20270;-58
2022/06/14 07:50:08;;;;;;;5.97;2.30;;;;;;;34.49;25.70;98478.56;5050226;28;20104;-58
2022/06/14 07:52:44;;;;;;;5.95;2.30;;;;;;;34.62;25.71;98486.72;5015012;28;20041;-57
2022/06/14 07:55:27;;;;;;;6.00;2.80;;;;;;;32.00;28.07;98479.59;5046554;28;20033;-58
2022/06/14 07:58:00;;;;;;;6.13;2.25;;;;;;;36.75;23.93;98476.44;5047488;28;20512;-58
2022/06/14 08:03:34;;;;;;;8.00;2.40;;;;;;;34.21;25.83;98476.84;5048193;28;20102;-59
2022/06/14 08:06:03;;;;;;;4.97;2.30;;;;;;;34.61;26.42;98481.50;5048887;28;20386;-58
2022/06/14 08:08:34;;;;;;;4.45;2.05;;;;;;;33.41;27.22;98476.41;5047169;28;20025;-60
2022/06/14 08:11:25;;;;;;;6.25;2.40;;;;;;;33.79;26.66;98479.56;5045875;28;20461;-59
2022/06/14 08:13:56;;;;;;;6.07;2.22;;;;;;;31.85;28.18;98476.06;5047811;28;20104;-59
2022/06/14 08:16:24;;;;;;;6.47;2.50;;;;;;;34.25;25.36;98477.28;5045786;28;20040;-58
2022/06/14 08:19:15;;;;;;;7.47;2.70;;;;;;;32.32;27.66;98472.09;5047501;28;20284;-58
2022/06/14 08:21:47;;;;;;;7.27;2.50;;;;;;;33.14;27.45;98478.94;5046423;28;20044;-60
2022/06/14 08:24:27;;;;;;;6.00;2.80;;;;;;;33.33;27.00;98484.66;5046654;28;20068;-59
2022/06/14 08:27:01;;;;;;;7.03;2.63;;;;;;;33.10;26.10;98479.47;5047442;28;20048;-59
2022/06/14 08:29:35;;;;;;;7.30;2.85;;;;;;;33.25;26.18;98479.41;5048326;28;20025;-58
2022/06/14 08:32:03;;;;;;;6.88;2.63;;;;;;;35.11;24.44;98474.69;5046610;28;20032;-58
2022/06/14 08:34:36;;;;;;;7.95;2.50;;;;;;;30.96;28.06;98468.72;5047770;28;20575;-60
2022/06/14 08:37:08;;;;;;;5.25;2.40;;;;;;;31.93;26.59;98465.19;5048883;28;20040;-57
2022/06/14 08:39:42;;;;;;;6.30;2.60;;;;;;;33.71;24.64;98468.06;5047449;28;20097;-57
2022/06/14 08:42:37;;;;;;;6.35;2.78;;;;;;;33.16;25.61;98457.09;5046068;28;20072;-59
2022/06/14 08:45:07;;;;;;;9.52;2.50;;;;;;;32.52;25.87;98460.66;5047778;28;20553;-59
2022/06/14 08:47:52;;;;;;;5.68;2.60;;;;;;;33.13;26.13;98460.19;5046651;28;20032;-59
2022/06/14 08:50:46;;;;;;;5.95;2.60;;;;;;;33.44;24.95;98464.38;5017768;28;20063;-59
2022/06/14 08:53:20;;;;;;;5.60;2.50;;;;;;;32.35;25.77;98466.31;5049885;28;20027;-57
2022/06/14 08:55:56;;;;;;;5.88;2.55;;;;;;;32.76;25.42;98462.16;5047291;28;20041;-57
2022/06/14 08:58:53;;;;;;;5.63;2.58;;;;;;;32.29;26.41;98464.34;5046749;28;20028;-58
2022/06/14 09:01:27;;;;;;;7.75;3.10;;;;;;;32.56;27.30;98456.53;5045893;28;20064;-58
2022/06/14 09:04:35;;;;;;;7.80;2.90;;;;;;;30.63;27.55;98465.44;5047310;28;20340;-57
2022/06/14 09:07:11;;;;;;;8.02;2.95;;;;;;;32.70;25.92;98457.53;5045333;28;20036;-58
2022/06/14 09:09:46;;;;;;;8.60;3.08;;;;;;;32.34;25.77;98458.41;5046071;28;20028;-58
2022/06/14 09:12:31;;;;;;;6.72;2.55;;;;;;;33.11;25.86;98457.66;5047479;28;20040;-57
2022/06/14 09:15:12;;;;;;;8.35;3.05;;;;;;;31.03;25.47;98450.81;5046144;28;20051;-57
2022/06/14 09:17:46;;;;;;;10.23;2.88;;;;;;;31.95;26.99;98449.63;5046880;28;20108;-57
2022/06/14 09:20:49;;;;;;;8.35;2.85;;;;;;;31.93;27.06;98451.69;5046226;28;20025;-57
2022/06/14 09:23:19;;;;;;;7.22;2.60;;;;;;;31.63;27.55;98434.69;5047419;28;20601;-57
2022/06/14 09:25:50;;;;;;;7.13;2.80;;;;;;;34.04;26.04;98437.59;5046400;28;20110;-57
2022/06/14 09:28:34;;;;;;;;;;;;;;;30.44;27.90;98435.31;5046960;28;20506;-56
2022/06/14 09:31:09;;;;;;;12.98;3.50;;;;;;;30.77;27.99;98432.34;5043976;28;20539;-57
2022/06/14 09:33:40;;;;;;;8.07;3.03;;;;;;;31.65;27.21;98428.09;5045092;28;20808;-57
2022/06/14 09:36:33;;;;;;;8.73;3.08;;;;;;;31.50;27.31;98429.97;5044814;28;20131;-57
2022/06/14 09:39:20;;;;;;;8.38;3.05;;;;;;;31.40;27.86;98434.78;5045462;28;20082;-57
2022/06/14 09:42:23;;;;;;;8.20;2.90;;;;;;;31.68;26.67;98427.72;5043266;28;20117;-57
2022/06/14 09:45:01;;;;;;;10.85;2.90;;;;;;;31.74;25.95;98419.91;5047165;28;20810;-58
2022/06/14 09:47:47;;;;;;;6.95;2.55;;;;;;;32.28;25.17;98422.22;5044849;28;20052;-58
2022/06/14 09:50:13;;;;;;;8.30;2.85;;;;;;;32.41;24.78;98425.03;5043722;28;20032;-57
2022/06/14 09:52:44;;;;;;;11.75;3.30;;;;;;;32.00;25.86;98431.03;5047771;28;20042;-58
2022/06/14 09:55:17;;;;;;;8.77;2.90;;;;;;;30.65;26.79;98436.50;5044624;28;20029;-57
2022/06/14 09:58:13;;;;;;;8.77;2.97;;;;;;;31.30;27.09;98430.50;5044946;28;20021;-60
2022/06/14 10:00:42;;;;;;;9.68;3.22;;;;;;;35.69;23.01;98424.31;5044834;28;20109;-56
2022/06/14 10:03:27;;;;;;;7.25;2.67;;;;;;;33.41;24.45;98425.03;5045540;28;20178;-57
2022/06/14 10:06:21;;;;;;;7.40;2.85;;;;;;;31.69;26.68;98421.31;5044262;28;20706;-57
2022/06/14 10:09:04;;;;;;;11.45;3.00;;;;;;;31.17;26.38;98414.13;5045636;28;20024;-57
2022/06/14 10:11:56;;;;;;;8.95;3.05;;;;;;;33.60;25.57;98421.59;5045538;28;20031;-56
2022/06/14 10:14:33;;;;;;;9.57;3.08;;;;;;;32.92;24.99;98412.41;5045352;28;20059;-56
2022/06/14 10:17:15;;;;;;;7.25;2.78;;;;;;;32.10;25.26;98408.31;5043687;28;20120;-58
2022/06/14 10:19:52;;;;;;;9.50;3.00;;;;;;;30.26;26.33;98405.13;5045539;28;20025;-58
2022/06/14 10:22:52;;;;;;;7.53;2.80;;;;;;;31.16;26.59;98395.47;5043384;28;20072;-58
2022/06/14 10:25:33;;;;;;;9.27;2.67;;;;;;;33.72;23.94;98396.72;5045929;28;20033;-57
2022/06/14 10:28:12;;;;;;;;;;;;;;;31.42;26.08;98395.00;5047958;28;20035;-57
2022/06/14 10:31:05;;;;;;;9.73;3.25;;;;;;;30.75;27.88;98394.84;5042676;28;19917;-57
2022/06/14 10:33:46;;;;;;;8.55;2.90;;;;;;;31.76;25.82;98388.19;5044918;28;20036;-56
2022/06/14 10:36:33;;;;;;;9.40;3.00;;;;;;;30.86;26.89;98390.88;5046393;28;20097;-56
2022/06/14 10:39:23;;;;;;;10.75;2.90;;;;;;;32.29;25.33;98388.78;5044393;28;20037;-56
2022/06/14 10:42:11;;;;;;;8.75;2.92;;;;;;;31.03;27.70;98380.78;5045043;28;20045;-57
2022/06/14 10:44:55;;;;;;;9.70;3.22;;;;;;;30.04;26.74;98385.28;5045349;28;20078;-56
2022/06/14 10:47:33;;;;;;;8.75;3.20;;;;;;;30.06;27.99;98384.06;5043467;28;20033;-57
2022/06/14 10:50:17;;;;;;;12.60;3.60;;;;;;;30.16;27.18;98382.00;5044881;28;20159;-57
2022/06/14 10:53:24;;;;;;;8.80;3.10;;;;;;;30.28;27.99;98374.34;5048103;28;20130;-57
2022/06/14 10:56:18;;;;;;;8.45;3.20;;;;;;;31.09;25.55;98373.81;5015984;28;20041;-57
2022/06/14 10:59:03;;;;;;;9.82;3.40;;;;;;;29.57;26.90;98379.78;5045434;28;20029;-57
2022/06/14 11:01:39;;;;;;;9.73;3.38;;;;;;;32.67;24.11;98371.50;5044013;28;20036;-58
2022/06/14 11:04:16;;;;;;;11.10;2.90;;;;;;;30.49;26.23;98379.09;5046039;28;20359;-57
2022/06/14 11:07:00;;;;;;;7.32;2.88;;;;;;;30.34;26.71;98364.72;5043966;28;20041;-58
2022/06/14 11:09:50;;;;;;;8.38;2.63;;;;;;;30.07;26.14;98368.75;5045829;28;20526;-59
2022/06/14 11:12:45;;;;;;;7.55;2.65;;;;;;;29.69;27.08;98369.47;5044273;28;20041;-57
2022/06/14 11:15:19;;;;;;;11.55;3.28;;;;;;;29.87;27.04;98369.25;5041660;28;20039;-59
2022/06/14 11:18:03;;;;;;;8.85;2.78;;;;;;;30.18;26.31;98366.50;5043336;28;20024;-56
2022/06/14 11:20:38;;;;;;;8.77;3.05;;;;;;;31.25;24.63;98357.47;5044436;28;20037;-56
2022/06/14 11:23:18;;;;;;;9.48;2.70;;;;;;;30.32;24.68;98362.19;5053209;28;20492;-55
2022/06/14 11:26:06;;;;;;;8.15;2.70;;;;;;;31.36;25.58;98352.59;5044144;28;20041;-57
2022/06/14 11:28:35;;;;;;;6.80;2.50;;;;;;;30.97;26.66;98359.13;5044864;28;20108;-58
2022/06/14 11:31:12;;;;;;;8.45;2.88;;;;;;;28.95;26.24;98359.00;5050411;28;20570;-57
2022/06/14 11:33:45;;;;;;;10.10;3.15;;;;;;;30.12;26.41;98361.81;5048995;28;20036;-59
2022/06/14 11:36:29;;;;;;;9.20;3.10;;;;;;;29.59;24.83;98360.78;5048344;28;20140;-58
2022/06/14 11:39:04;;;;;;;9.40;3.17;;;;;;;29.31;25.77;98352.34;5048822;28;20059;-60
2022/06/14 11:41:37;;;;;;;11.27;3.38;;;;;;;27.02;26.89;98349.22;5046391;28;20513;-57
2022/06/14 11:44:17;;;;;;;15.27;3.42;;;;;;;27.99;26.19;98351.59;5047292;28;20031;-58
2022/06/14 11:47:08;;;;;;;11.95;3.42;;;;;;;28.08;27.33;98358.66;5046668;28;20036;-57
2022/06/14 11:49:43;;;;;;;15.20;4.03;;;;;;;28.42;27.14;98350.47;5046885;28;20032;-58
2022/06/14 11:52:24;;;;;;;11.65;3.10;;;;;;;29.67;27.14;98333.88;5045155;28;20040;-58
2022/06/14 11:55:08;;;;;;;14.35;3.67;;;;;;;28.49;27.52;98339.06;5050199;28;20032;-59
2022/06/14 11:57:49;;;;;;;15.25;3.58;;;;;;;26.69;28.11;98341.00;5047699;28;20045;-57
2022/06/14 12:00:27;;;;;;;17.33;3.20;;;;;;;27.87;27.17;98333.13;5048249;28;20031;-58
2022/06/14 12:03:10;;;;;;;14.18;3.45;;;;;;;29.26;29.12;98335.91;5049234;28;20103;-58
2022/06/14 12:06:00;;;;;;;10.60;3.13;;;;;;;29.29;28.57;98336.41;5046226;28;20127;-57
2022/06/14 12:08:44;;;;;;;13.70;3.50;;;;;;;29.20;28.69;98334.75;5047743;28;20037;-57
2022/06/14 12:11:41;;;;;;;11.45;3.10;;;;;;;29.63;27.71;98324.50;5046990;28;20134;-57
2022/06/14 12:14:34;;;;;;;15.40;3.53;;;;;;;26.93;28.55;98321.56;5031727;28;20048;-57
2022/06/14 12:17:25;;;;;;;11.40;3.30;;;;;;;28.20;27.49;98327.00;5047007;28;20037;-57
2022/06/14 12:20:01;;;;;;;15.77;4.00;;;;;;;27.09;29.22;98318.16;5048242;28;20388;-57
2022/06/14 12:22:36;;;;;;;12.63;3.40;;;;;;;27.56;29.04;98321.34;5047720;28;20047;-58
2022/06/14 12:28:45;;;;;;;11.55;3.25;;;;;;;27.58;28.21;98317.50;5043037;28;20281;-57
2022/06/14 12:31:26;;;;;;;11.95;3.25;;;;;;;27.26;28.71;98308.38;5045827;28;20186;-57